createdAt,value
2023-02-19T00:00:56.504Z,46.20
2023-02-19T00:03:28.301Z,41.85
2023-02-19T00:06:10.346Z,40.80
2023-02-19T00:08:54.680Z,38.10
2023-02-19T00:11:40.475Z,39.67
2023-02-19T00:14:20.362Z,43.45
2023-02-19T00:17:01.991Z,37.55
2023-02-19T00:22:43.719Z,34.83
2023-02-19T00:25:21.647Z,32.97
2023-02-19T00:28:04.098Z,34.95
2023-02-19T00:30:43.205Z,30.80
2023-02-19T00:33:24.726Z,33.00
2023-02-19T00:36:02.260Z,30.95
2023-02-19T00:38:41.759Z,31.67
2023-02-19T00:41:29.233Z,29.05
2023-02-19T00:44:05.913Z,32.03
2023-02-19T00:46:47.474Z,32.13
2023-02-19T00:49:26.025Z,32.70
2023-02-19T00:52:02.409Z,29.55
2023-02-19T00:54:44.632Z,31.60
2023-02-19T00:57:17.058Z,31.45
2023-02-19T00:59:47.442Z,34.60
2023-02-19T01:02:24.908Z,33.75
2023-02-19T01:05:09.870Z,35.53
2023-02-19T01:07:50.405Z,34.35
2023-02-19T01:10:31.405Z,32.13
2023-02-19T01:13:12.654Z,32.95
2023-02-19T01:15:53.152Z,34.05
2023-02-19T01:18:33.963Z,32.05
2023-02-19T01:21:14.917Z,37.97
2023-02-19T01:23:53.213Z,34.25
2023-02-19T01:26:39.186Z,37.03
2023-02-19T01:29:26.251Z,37.85
2023-02-19T01:32:06.721Z,34.20
2023-02-19T01:37:22.099Z,37.13
2023-02-19T01:40:00.886Z,38.38
2023-02-19T01:42:41.420Z,43.58
2023-02-19T01:45:32.494Z,40.13
2023-02-19T01:48:09.745Z,42.40
2023-02-19T01:50:51.163Z,40.55
2023-02-19T01:56:11.290Z,39.50
2023-02-19T01:58:57.626Z,42.10
2023-02-19T02:01:28.108Z,39.60
2023-02-19T02:04:09.377Z,44.50
2023-02-19T02:07:28.121Z,40.42
2023-02-19T02:10:17.663Z,37.63
2023-02-19T02:16:04.603Z,38.05
2023-02-19T02:18:58.943Z,40.67
2023-02-19T02:22:02.238Z,36.97
2023-02-19T02:25:11.880Z,38.78
2023-02-19T02:28:00.876Z,34.03
2023-02-19T02:30:50.603Z,37.67
2023-02-19T02:33:33.175Z,37.47
2023-02-19T02:36:22.354Z,36.65
2023-02-19T02:39:02.095Z,34.45
2023-02-19T02:41:38.801Z,36.55
2023-02-19T02:44:13.648Z,36.05
2023-02-19T02:47:03.379Z,38.03
2023-02-19T02:50:10.497Z,38.63
2023-02-19T02:53:02.377Z,44.58
2023-02-19T02:55:45.383Z,46.78
2023-02-19T02:58:36.905Z,48.90
2023-02-19T03:01:37.183Z,53.20
2023-02-19T03:04:32.785Z,60.40
2023-02-19T03:07:12.463Z,55.47
2023-02-19T03:09:51.639Z,56.07
2023-02-19T03:12:41.215Z,58.45
2023-02-19T03:15:32.413Z,60.72
2023-02-19T03:21:07.206Z,62.33
2023-02-19T03:23:55.974Z,60.45
2023-02-19T03:26:29.260Z,62.25
2023-02-19T03:29:18.197Z,66.65
2023-02-19T03:32:05.398Z,60.40
2023-02-19T03:34:50.763Z,65.53
2023-02-19T03:37:45.224Z,67.68
2023-02-19T03:40:28.740Z,62.15
2023-02-19T03:43:16.049Z,60.47
2023-02-19T03:46:10.453Z,59.42
2023-02-19T03:49:02.601Z,66.93
2023-02-19T03:51:52.071Z,70.43
2023-02-19T03:54:46.145Z,59.60
2023-02-19T03:57:39.591Z,64.45
2023-02-19T04:00:23.506Z,71.68
2023-02-19T04:03:12.601Z,61.08
2023-02-19T04:05:56.064Z,64.05
2023-02-19T04:08:41.802Z,69.57
2023-02-19T04:11:28.098Z,65.28
2023-02-19T04:14:16.146Z,68.05
2023-02-19T04:16:56.801Z,63.88
2023-02-19T04:19:35.875Z,66.47
2023-02-19T04:22:29.789Z,66.05
2023-02-19T04:25:06.902Z,65.63
2023-02-19T04:28:01.226Z,69.07
2023-02-19T04:30:43.988Z,68.25
2023-02-19T04:33:18.935Z,64.35
2023-02-19T04:35:58.337Z,68.35
2023-02-19T04:38:34.396Z,68.13
2023-02-19T04:41:13.758Z,64.85
2023-02-19T04:46:59.006Z,62.92
2023-02-19T04:49:41.065Z,61.35
2023-02-19T04:52:21.418Z,62.75
2023-02-19T04:54:57.193Z,65.15
2023-02-19T04:57:56.627Z,60.72
2023-02-19T05:00:51.425Z,60.65
2023-02-19T05:03:31.106Z,57.13
2023-02-19T05:06:11.992Z,57.65
2023-02-19T05:08:50.538Z,73.05
2023-02-19T05:11:34.001Z,67.82
2023-02-19T05:14:15.112Z,64.25
2023-02-19T05:19:34.492Z,61.28
2023-02-19T05:22:18.548Z,57.33
2023-02-19T05:24:55.598Z,56.35
2023-02-19T05:27:30.760Z,57.30
2023-02-19T05:30:02.965Z,52.38
2023-02-19T05:32:44.262Z,51.38
2023-02-19T05:35:30.044Z,52.38
2023-02-19T05:38:15.935Z,53.20
2023-02-19T05:40:58.162Z,53.65
2023-02-19T05:43:40.968Z,50.72
2023-02-19T05:46:17.515Z,51.13
2023-02-19T05:48:59.851Z,52.10
2023-02-19T05:51:35.698Z,50.63
2023-02-19T05:54:06.923Z,45.55
2023-02-19T05:56:40.402Z,44.28
2023-02-19T05:59:22.067Z,47.88
2023-02-19T06:02:10.138Z,49.85
2023-02-19T06:04:55.588Z,45.65
2023-02-19T06:07:28.194Z,45.72
2023-02-19T06:10:12.692Z,40.13
2023-02-19T06:12:54.334Z,41.58
2023-02-19T06:15:33.318Z,38.20
2023-02-19T06:18:12.941Z,39.72
2023-02-19T06:20:58.017Z,42.60
2023-02-19T06:23:50.887Z,38.55
2023-02-19T06:26:32.325Z,40.40
2023-02-19T06:29:05.339Z,37.45
2023-02-19T06:31:56.136Z,41.20
2023-02-19T06:34:39.239Z,37.15
2023-02-19T06:37:28.264Z,35.05
2023-02-19T06:40:16.225Z,39.97
2023-02-19T06:42:49.201Z,36.20
2023-02-19T06:45:32.168Z,39.92
2023-02-19T06:48:07.585Z,46.75
2023-02-19T06:50:43.619Z,49.88
2023-02-19T06:53:33.654Z,46.75
2023-02-19T06:56:14.018Z,52.35
2023-02-19T06:58:47.315Z,51.20
2023-02-19T07:01:35.164Z,51.13
2023-02-19T07:04:16.339Z,53.53
2023-02-19T07:06:51.494Z,54.80
2023-02-19T07:09:32.209Z,53.13
2023-02-19T07:12:19.640Z,61.58
2023-02-19T07:15:02.887Z,56.03
2023-02-19T07:17:34.042Z,61.38
2023-02-19T07:20:13.146Z,67.93
2023-02-19T07:22:50.862Z,61.35
2023-02-19T07:25:31.413Z,66.32
2023-02-19T07:28:06.374Z,56.95
2023-02-19T07:30:42.067Z,57.15
2023-02-19T07:33:21.648Z,61.35
2023-02-19T07:35:57.190Z,66.43
2023-02-19T07:38:53.744Z,66.97
2023-02-19T07:41:36.939Z,60.55
2023-02-19T07:44:20.409Z,61.47
2023-02-19T07:47:04.342Z,54.80
2023-02-19T07:49:41.134Z,47.05
2023-02-19T07:52:21.581Z,49.40
2023-02-19T07:55:04.782Z,39.10
2023-02-19T07:57:49.950Z,42.13
2023-02-19T08:00:34.565Z,40.58
2023-02-19T08:03:09.597Z,37.17
2023-02-19T08:05:57.706Z,36.47
2023-02-19T08:08:40.654Z,34.13
2023-02-19T08:11:31.867Z,32.50
2023-02-19T08:17:12.147Z,31.20
2023-02-19T08:20:00.868Z,31.08
2023-02-19T08:22:33.296Z,31.55
2023-02-19T08:25:12.557Z,33.50
2023-02-19T08:27:53.432Z,33.97
2023-02-19T08:30:44.560Z,31.98
2023-02-19T08:36:27.799Z,33.78
2023-02-19T08:39:00.170Z,27.90
2023-02-19T08:41:37.452Z,27.48
2023-02-19T08:44:13.565Z,27.27
2023-02-19T08:47:01.157Z,23.20
2023-02-19T08:49:39.109Z,23.75
2023-02-19T08:52:13.291Z,24.25
2023-02-19T08:54:47.675Z,25.35
2023-02-19T08:57:50.592Z,24.27
2023-02-19T09:00:30.156Z,22.23
2023-02-19T09:03:13.525Z,22.23
2023-02-19T09:05:52.921Z,24.00
2023-02-19T09:08:34.950Z,29.58
2023-02-19T09:11:14.304Z,25.17
2023-02-19T09:13:50.107Z,26.00
2023-02-19T09:16:28.552Z,22.23
2023-02-19T09:19:19.521Z,19.52
2023-02-19T09:21:56.213Z,22.83
2023-02-19T09:24:36.413Z,25.58
2023-02-19T09:27:23.322Z,23.05
2023-02-19T09:30:02.490Z,18.05
2023-02-19T09:32:47.394Z,22.58
2023-02-19T09:35:36.759Z,18.02
2023-02-19T09:38:20.630Z,16.90
2023-02-19T09:40:57.702Z,15.23
2023-02-19T09:43:31.060Z,15.25
2023-02-19T09:46:25.933Z,13.10
2023-02-19T09:49:17.397Z,10.35
2023-02-19T09:54:45.865Z,12.20
2023-02-19T09:57:23.568Z,11.85
2023-02-19T10:00:15.052Z,13.05
2023-02-19T10:02:59.943Z,12.00
2023-02-19T10:05:36.477Z,23.13
2023-02-19T10:08:21.775Z,16.30
2023-02-19T10:10:57.650Z,10.77
2023-02-19T10:13:46.070Z,12.93
2023-02-19T10:16:26.651Z,12.20
2023-02-19T10:19:07.311Z,13.80
2023-02-19T10:21:45.471Z,12.23
2023-02-19T10:24:24.766Z,9.57
2023-02-19T10:27:07.011Z,14.77
2023-02-19T10:29:40.257Z,8.43
2023-02-19T10:32:28.436Z,13.68
2023-02-19T10:35:22.144Z,10.75
2023-02-19T10:38:02.616Z,9.77
2023-02-19T10:40:42.301Z,8.57
2023-02-19T10:43:38.975Z,11.88
2023-02-19T10:46:27.323Z,9.27
2023-02-19T10:49:06.803Z,12.35
2023-02-19T10:51:43.483Z,9.63
2023-02-19T10:54:33.788Z,10.55
2023-02-19T10:57:40.959Z,13.23
2023-02-19T11:00:38.314Z,13.25
2023-02-19T11:03:29.110Z,9.43
2023-02-19T11:06:26.120Z,9.90
2023-02-19T11:09:03.185Z,10.02
2023-02-19T11:11:43.741Z,10.45
2023-02-19T11:14:19.798Z,9.85
2023-02-19T11:17:28.836Z,7.70
2023-02-19T11:20:10.189Z,12.15
2023-02-19T11:22:50.693Z,12.45
2023-02-19T11:25:33.205Z,9.60
2023-02-19T11:28:41.732Z,12.45
2023-02-19T11:31:33.788Z,16.67
2023-02-19T11:34:37.455Z,10.55
2023-02-19T11:37:28.385Z,8.55
2023-02-19T11:40:01.948Z,8.48
2023-02-19T11:42:48.997Z,12.55
2023-02-19T11:45:56.362Z,10.95
2023-02-19T11:49:07.060Z,12.00
2023-02-19T11:52:02.665Z,14.18
2023-02-19T11:54:51.962Z,19.05
2023-02-19T11:57:52.990Z,15.57
2023-02-19T12:00:35.452Z,11.18
2023-02-19T12:03:28.666Z,14.32
2023-02-19T12:06:17.248Z,14.25
2023-02-19T12:09:23.802Z,15.43
2023-02-19T12:12:32.476Z,10.45
2023-02-19T12:15:44.069Z,11.20
2023-02-19T12:18:40.371Z,10.07
2023-02-19T12:21:30.385Z,10.88
2023-02-19T12:24:47.521Z,9.00
2023-02-19T12:27:47.317Z,12.27
2023-02-19T12:30:33.374Z,10.43
2023-02-19T12:33:38.145Z,8.63
2023-02-19T12:36:34.337Z,9.15
2023-02-19T12:39:13.150Z,9.43
2023-02-19T12:42:03.605Z,14.77
2023-02-19T12:44:45.447Z,11.82
2023-02-19T12:47:23.619Z,11.35
2023-02-19T12:50:09.279Z,15.45
2023-02-19T12:52:46.270Z,12.15
2023-02-19T12:55:31.387Z,9.32
2023-02-19T12:58:24.615Z,10.88
2023-02-19T13:01:02.251Z,12.55
2023-02-19T13:03:52.271Z,12.10
2023-02-19T13:06:37.287Z,9.02
2023-02-19T13:09:17.384Z,10.90
2023-02-19T13:12:03.757Z,9.10
2023-02-19T13:14:43.441Z,7.95
2023-02-19T13:17:32.198Z,9.23
2023-02-19T13:20:11.705Z,10.60
2023-02-19T13:23:05.746Z,16.88
2023-02-19T13:26:00.515Z,14.50
2023-02-19T13:28:52.900Z,18.63
2023-02-19T13:32:19.473Z,9.88
2023-02-19T13:35:04.185Z,12.10
2023-02-19T13:37:40.738Z,14.00
2023-02-19T13:40:45.728Z,13.32
2023-02-19T13:43:30.269Z,14.10
2023-02-19T13:46:08.294Z,16.23
2023-02-19T13:48:48.389Z,11.63
2023-02-19T13:51:56.808Z,12.05
2023-02-19T13:54:33.286Z,8.23
2023-02-19T13:57:33.978Z,11.05
2023-02-19T14:00:57.225Z,8.75
2023-02-19T14:03:35.360Z,8.77
2023-02-19T14:08:56.865Z,10.52
2023-02-19T14:12:10.388Z,8.25
2023-02-19T14:14:46.302Z,9.05
2023-02-19T14:17:36.102Z,11.75
2023-02-19T14:20:50.098Z,11.55
2023-02-19T14:23:31.303Z,9.85
2023-02-19T14:28:43.561Z,9.48
2023-02-19T14:31:31.453Z,10.20
2023-02-19T14:34:12.632Z,9.40
2023-02-19T14:39:35.711Z,14.68
2023-02-19T14:42:17.729Z,17.75
2023-02-19T14:44:58.989Z,19.75
2023-02-19T14:47:44.135Z,18.63
2023-02-19T14:50:28.716Z,16.65
2023-02-19T14:53:04.608Z,16.25
2023-02-19T14:55:46.560Z,15.13
2023-02-19T14:58:24.724Z,18.90
2023-02-19T15:00:57.412Z,16.10
2023-02-19T15:03:47.517Z,14.40
2023-02-19T15:06:26.448Z,15.57
2023-02-19T15:09:04.455Z,17.15
2023-02-19T15:11:45.481Z,19.65
2023-02-19T15:17:04.202Z,15.80
2023-02-19T15:19:44.675Z,26.67
2023-02-19T15:22:24.289Z,18.13
2023-02-19T15:25:02.253Z,16.42
2023-02-19T15:27:49.434Z,22.88
2023-02-19T15:30:30.520Z,12.98
2023-02-19T15:33:07.272Z,13.15
2023-02-19T15:35:45.997Z,16.80
2023-02-19T15:38:21.958Z,15.23
2023-02-19T15:40:57.406Z,14.35
2023-02-19T15:43:39.468Z,16.67
2023-02-19T15:46:23.461Z,11.80
2023-02-19T15:49:01.512Z,14.35
2023-02-19T15:51:44.692Z,16.77
2023-02-19T15:54:27.220Z,16.42
2023-02-19T15:57:13.634Z,23.55
2023-02-19T15:59:58.727Z,33.10
2023-02-19T16:02:32.207Z,49.08
2023-02-19T16:05:08.413Z,26.80
2023-02-19T16:07:44.791Z,23.92
2023-02-19T16:10:31.637Z,22.38
2023-02-19T16:13:09.502Z,24.50
2023-02-19T16:15:47.336Z,25.52
2023-02-19T16:18:37.826Z,31.67
2023-02-19T16:21:17.163Z,27.15
2023-02-19T16:23:50.608Z,26.23
2023-02-19T16:26:31.528Z,35.75
2023-02-19T16:29:24.335Z,30.85
2023-02-19T16:34:50.896Z,34.15
2023-02-19T16:37:46.720Z,32.55
2023-02-19T16:41:19.580Z,28.40
2023-02-19T16:43:52.295Z,26.80
2023-02-19T16:46:31.530Z,35.10
2023-02-19T16:49:16.514Z,24.57
2023-02-19T16:52:02.140Z,27.00
2023-02-19T16:54:46.056Z,32.92
2023-02-19T16:57:29.121Z,32.88
2023-02-19T17:00:05.287Z,66.03
2023-02-19T17:02:45.972Z,56.97
2023-02-19T17:05:24.324Z,45.78
2023-02-19T17:08:00.102Z,27.55
2023-02-19T17:10:31.787Z,34.10
2023-02-19T17:13:04.053Z,36.85
2023-02-19T17:15:38.270Z,38.25
2023-02-19T17:18:16.284Z,54.58
2023-02-19T17:21:02.960Z,44.92
2023-02-19T17:23:34.289Z,37.75
2023-02-19T17:26:19.984Z,32.00
2023-02-19T17:28:59.584Z,25.70
2023-02-19T17:31:35.409Z,23.92
2023-02-19T17:34:10.388Z,22.33
2023-02-19T17:36:48.230Z,25.70
2023-02-19T17:39:25.622Z,24.02
2023-02-19T17:42:04.378Z,22.70
2023-02-19T17:44:37.552Z,19.65
2023-02-19T17:47:08.532Z,20.35
2023-02-19T17:49:45.894Z,20.15
2023-02-19T17:52:22.143Z,25.70
2023-02-19T17:54:57.854Z,24.83
2023-02-19T17:57:36.312Z,29.20
2023-02-19T18:00:13.744Z,25.15
2023-02-19T18:02:46.297Z,31.88
2023-02-19T18:05:20.156Z,30.10
2023-02-19T18:07:55.526Z,31.63
2023-02-19T18:10:29.615Z,29.55
2023-02-19T18:13:05.925Z,29.65
2023-02-19T18:15:36.410Z,26.13
2023-02-19T18:18:15.661Z,26.77
2023-02-19T18:20:52.713Z,24.92
2023-02-19T18:23:29.063Z,28.90
2023-02-19T18:26:00.982Z,28.45
2023-02-19T18:28:32.539Z,34.15
2023-02-19T18:31:07.559Z,32.95
2023-02-19T18:33:38.076Z,33.65
2023-02-19T18:36:13.836Z,33.92
2023-02-19T18:38:53.573Z,35.20
2023-02-19T18:41:36.026Z,38.58
2023-02-19T18:44:10.730Z,32.05
2023-02-19T18:46:43.985Z,39.78
2023-02-19T18:49:24.835Z,41.28
2023-02-19T18:51:56.188Z,39.03
2023-02-19T18:54:42.933Z,32.78
2023-02-19T18:57:14.176Z,36.80
2023-02-19T18:59:45.234Z,39.67
2023-02-19T19:04:58.874Z,49.17
2023-02-19T19:07:29.522Z,42.65
2023-02-19T19:10:15.761Z,39.20
2023-02-19T19:12:55.060Z,34.47
2023-02-19T19:15:28.251Z,35.08
2023-02-19T19:18:00.938Z,32.97
2023-02-19T19:20:39.009Z,40.83
2023-02-19T19:23:16.019Z,49.55
2023-02-19T19:26:07.681Z,40.15
2023-02-19T19:28:47.989Z,29.23
2023-02-19T19:31:28.047Z,32.80
2023-02-19T19:34:04.819Z,25.77
2023-02-19T19:36:46.270Z,31.35
2023-02-19T19:39:20.564Z,24.95
2023-02-19T19:42:06.777Z,24.65
2023-02-19T19:44:46.643Z,25.20
2023-02-19T19:47:17.552Z,25.20
2023-02-19T19:50:00.646Z,24.17
2023-02-19T19:52:33.302Z,24.17
2023-02-19T19:55:04.841Z,25.17
2023-02-19T19:57:41.988Z,23.30
2023-02-19T20:00:21.553Z,25.90
2023-02-19T20:03:00.592Z,22.40
2023-02-19T20:05:35.166Z,29.67
2023-02-19T20:08:11.647Z,31.17
2023-02-19T20:10:47.232Z,25.20
2023-02-19T20:13:37.577Z,24.90
2023-02-19T20:16:17.755Z,27.50
2023-02-19T20:19:01.998Z,29.50
2023-02-19T20:21:41.212Z,32.10
2023-02-19T20:24:17.198Z,33.78
2023-02-19T20:27:05.331Z,30.63
2023-02-19T20:29:52.125Z,27.40
2023-02-19T20:32:32.615Z,27.45
2023-02-19T20:35:07.233Z,26.77
2023-02-19T20:37:53.985Z,30.65
2023-02-19T20:40:41.636Z,28.20
2023-02-19T20:43:16.596Z,28.48
2023-02-19T20:46:04.653Z,27.65
2023-02-19T20:48:37.235Z,24.27
2023-02-19T20:51:08.787Z,24.50
2023-02-19T20:53:55.862Z,21.45
2023-02-19T20:56:34.026Z,23.90
2023-02-19T20:59:08.860Z,21.05
2023-02-19T21:01:57.771Z,22.60
2023-02-19T21:04:40.930Z,21.67
2023-02-19T21:07:19.276Z,20.92
2023-02-19T21:09:58.738Z,19.70
2023-02-19T21:12:33.902Z,16.00
2023-02-19T21:15:15.438Z,10.27
2023-02-19T21:17:54.380Z,12.73
2023-02-19T21:20:25.260Z,9.20
2023-02-19T21:25:41.678Z,3.40
2023-02-19T21:28:13.778Z,3.35
2023-02-19T21:30:46.786Z,7.50
2023-02-19T21:33:31.521Z,3.53
2023-02-19T21:36:06.601Z,6.72
2023-02-19T21:38:39.109Z,2.30
2023-02-19T21:41:14.140Z,5.18
2023-02-19T21:43:44.783Z,2.70
2023-02-19T21:46:27.660Z,3.08
2023-02-19T21:49:13.137Z,4.82
2023-02-19T21:51:53.126Z,4.22
2023-02-19T21:54:31.423Z,4.68
2023-02-19T21:57:14.586Z,4.00
2023-02-19T21:59:50.303Z,3.22
2023-02-19T22:02:31.847Z,3.13
2023-02-19T22:05:19.337Z,3.80
2023-02-19T22:07:57.212Z,4.68
2023-02-19T22:10:49.528Z,3.40
2023-02-19T22:13:25.692Z,6.85
2023-02-19T22:16:02.931Z,3.63
2023-02-19T22:18:45.228Z,4.70
2023-02-19T22:21:28.087Z,3.45
2023-02-19T22:24:05.057Z,3.92
2023-02-19T22:26:44.340Z,2.80
2023-02-19T22:29:25.825Z,2.90
2023-02-19T22:32:04.006Z,3.35
2023-02-19T22:34:48.001Z,2.97
2023-02-19T22:37:28.931Z,4.03
2023-02-19T22:40:09.904Z,4.28
2023-02-19T22:42:43.592Z,5.55
2023-02-19T22:45:23.032Z,5.90
2023-02-19T22:48:03.474Z,7.85
2023-02-19T22:50:38.866Z,8.38
2023-02-19T22:53:32.900Z,9.77
2023-02-19T22:56:09.310Z,8.68
2023-02-19T22:58:45.066Z,10.50
2023-02-19T23:01:23.620Z,9.98
2023-02-19T23:04:01.232Z,11.43
2023-02-19T23:06:38.157Z,9.45
2023-02-19T23:09:23.480Z,5.78
2023-02-19T23:11:55.353Z,5.70
2023-02-19T23:14:35.833Z,7.00
2023-02-19T23:17:09.078Z,9.38
2023-02-19T23:19:51.093Z,8.95
2023-02-19T23:22:28.761Z,10.77
2023-02-19T23:25:14.822Z,8.77
2023-02-19T23:27:51.556Z,9.00
2023-02-19T23:30:26.373Z,9.85
2023-02-19T23:32:59.499Z,11.98
2023-02-19T23:35:31.857Z,12.00
2023-02-19T23:38:07.110Z,11.48
2023-02-19T23:40:49.660Z,8.75
2023-02-19T23:43:36.953Z,7.95
2023-02-19T23:46:12.119Z,7.65
2023-02-19T23:48:57.680Z,5.60
2023-02-19T23:51:36.618Z,5.90
2023-02-19T23:54:17.475Z,7.90
2023-02-19T23:57:11.069Z,6.40
2023-02-19T23:59:49.199Z,4.22
